ワルシャワ の空港の天気 - METARとTAF

ワルシャワ・フレデリック・ショパン空港 ( EPWA / WAW ) - ポーランド ワルシャワ
飛行場実況気象(Metar)
観測時間07/16 08:00 CEST (07/16 06:00 UTC)
風向・風速西北西 3m/s
視程10km以上
天気現象
少しの雲 雲底高度 240m
全天の4割程度の雲 雲底高度 1400m
気温17℃
湿度94%
気圧1010hPa
METAREPWA 160600Z 30006KT 9999 FEW008 SCT046CB 17/16 Q1010 TEMPO BKN008
過去の天気等 Google飛行場航空写真 Wunderground天気予報

過去48時間のMETAR

飛行場予報(TAF)
発表時間: 7/16 07:30 CEST (7/16 05:30 UTC)
予報対象時間: 16日8時 CEST ~ 17日8時 CEST
風向・風速北西 5m/s
視程10km以上
なし
16日8時 CEST ~ 17日5時 CEST に一時的に
視程4000m
天気現象しゅう雨
全天の8割程度の雲 雲底高度 300m
全天の8割程度の積乱雲 雲底高度 610m
16日8時 CEST ~ 16日20時 CEST に 確率 40% で一時的に
風向・風速不定 8m/s 瞬間風速 15m/s
視程2000m
天気現象雷雨
16日20時 CEST ~ 16日23時 CEST に徐々に
風向・風速不定 2m/s
17日0時 CEST から 確率 40% で
視程2500m
天気現象もや
全天の8割程度の雲 雲底高度 90m
TAF EPWA 160530Z 1606/1706 31010KT CAVOK
TEMPO 1606/1703 4000 SHRA BKN010 BKN020CB
PROB40 TEMPO 1606/1618 VRB15G30KT 2000 TSRA
BECMG 1618/1621 VRB04KT
PROB40 1622/1706 2500 BR BKN003